Terminal Aerodrome Forecast
Issued by NWS

Home | Current Version | Previous Version | Graphics & Text | Print | Product List | Glossary On
Versions: 1 2 3 4 5 6 7 8 9 10 11 12 13 14 15 16 17 18 19 20 21 22 23 24 25 26 27 28 29 30
000
FTUS45 KGGW 170527
TAFOLF
TAF
KOLF 170527Z 1706/1806 09016KT P6SM BKN100
     FM171000 08008KT P6SM -SHRA OVC050
     FM171700 35008KT P6SM -SHRA OVC015
     FM171900 28008KT P6SM -SHRA OVC010
     FM180000 27006KT P6SM BKN035
     FM180500 VRB04KT P6SM BKN015=

USA.gov is the U.S. government's official web portal to all federal, state and local government web resources and services.